sensor_id;sensor_type;location;lat;lon;timestamp;temperature;humidity
10314;DHT22;5202;49.138;10.090;2023-10-31T00:00:04;11.00;99.90
10314;DHT22;5202;49.138;10.090;2023-10-31T00:02:33;11.00;99.90
10314;DHT22;5202;49.138;10.090;2023-10-31T00:05:02;11.00;99.90
10314;DHT22;5202;49.138;10.090;2023-10-31T00:07:32;10.90;99.90
10314;DHT22;5202;49.138;10.090;2023-10-31T00:10:01;10.90;99.90
10314;DHT22;5202;49.138;10.090;2023-10-31T00:12:30;11.00;99.90
10314;DHT22;5202;49.138;10.090;2023-10-31T00:14:58;10.90;99.90
10314;DHT22;5202;49.138;10.090;2023-10-31T00:17:27;10.90;99.90
10314;DHT22;5202;49.138;10.090;2023-10-31T00:19:55;10.90;99.90
10314;DHT22;5202;49.138;10.090;2023-10-31T00:22:24;10.90;99.90
10314;DHT22;5202;49.138;10.090;2023-10-31T00:24:54;10.90;99.90
10314;DHT22;5202;49.138;10.090;2023-10-31T00:27:22;10.90;99.90
10314;DHT22;5202;49.138;10.090;2023-10-31T00:29:51;10.90;99.90
10314;DHT22;5202;49.138;10.090;2023-10-31T00:32:19;10.90;99.90
10314;DHT22;5202;49.138;10.090;2023-10-31T00:34:48;10.80;99.90
10314;DHT22;5202;49.138;10.090;2023-10-31T00:37:17;10.80;99.90
10314;DHT22;5202;49.138;10.090;2023-10-31T00:39:46;10.80;99.90
10314;DHT22;5202;49.138;10.090;2023-10-31T00:42:15;10.80;99.90
10314;DHT22;5202;49.138;10.090;2023-10-31T00:44:44;10.80;99.90
10314;DHT22;5202;49.138;10.090;2023-10-31T00:47:12;10.80;99.90
10314;DHT22;5202;49.138;10.090;2023-10-31T00:49:41;10.80;99.90
10314;DHT22;5202;49.138;10.090;2023-10-31T00:52:10;10.70;99.90
10314;DHT22;5202;49.138;10.090;2023-10-31T00:54:38;10.70;99.90
10314;DHT22;5202;49.138;10.090;2023-10-31T00:57:06;10.70;99.90
10314;DHT22;5202;49.138;10.090;2023-10-31T00:59:36;10.70;99.90
10314;DHT22;5202;49.138;10.090;2023-10-31T01:02:06;10.60;99.90
10314;DHT22;5202;49.138;10.090;2023-10-31T01:04:36;10.70;99.90
10314;DHT22;5202;49.138;10.090;2023-10-31T01:07:06;10.70;99.90
10314;DHT22;5202;49.138;10.090;2023-10-31T01:09:36;10.70;99.90
10314;DHT22;5202;49.138;10.090;2023-10-31T01:12:05;10.70;99.90
10314;DHT22;5202;49.138;10.090;2023-10-31T01:14:35;10.70;99.90
10314;DHT22;5202;49.138;10.090;2023-10-31T01:17:04;10.60;99.90
10314;DHT22;5202;49.138;10.090;2023-10-31T01:19:33;10.60;99.90
10314;DHT22;5202;49.138;10.090;2023-10-31T01:22:02;10.60;99.90
10314;DHT22;5202;49.138;10.090;2023-10-31T01:24:31;10.60;99.90
10314;DHT22;5202;49.138;10.090;2023-10-31T01:26:59;10.60;99.90
10314;DHT22;5202;49.138;10.090;2023-10-31T01:29:28;10.60;99.90
10314;DHT22;5202;49.138;10.090;2023-10-31T01:31:58;10.50;99.90
10314;DHT22;5202;49.138;10.090;2023-10-31T01:34:33;10.40;99.90
10314;DHT22;5202;49.138;10.090;2023-10-31T01:37:01;10.40;99.90
10314;DHT22;5202;49.138;10.090;2023-10-31T01:39:29;10.30;99.90
10314;DHT22;5202;49.138;10.090;2023-10-31T01:41:58;10.20;99.90
10314;DHT22;5202;49.138;10.090;2023-10-31T01:44:26;10.10;99.90
10314;DHT22;5202;49.138;10.090;2023-10-31T01:46:55;10.10;99.90
10314;DHT22;5202;49.138;10.090;2023-10-31T01:49:25;10.10;99.90
10314;DHT22;5202;49.138;10.090;2023-10-31T01:51:53;10.00;99.90
10314;DHT22;5202;49.138;10.090;2023-10-31T01:54:21;10.00;99.90
10314;DHT22;5202;49.138;10.090;2023-10-31T01:56:50;10.00;99.90
10314;DHT22;5202;49.138;10.090;2023-10-31T01:59:23;10.00;99.90
10314;DHT22;5202;49.138;10.090;2023-10-31T02:01:52;10.00;99.90
10314;DHT22;5202;49.138;10.090;2023-10-31T02:04:21;10.00;99.90
10314;DHT22;5202;49.138;10.090;2023-10-31T02:06:51;10.00;99.90
10314;DHT22;5202;49.138;10.090;2023-10-31T02:09:20;9.90;99.90
10314;DHT22;5202;49.138;10.090;2023-10-31T02:11:51;9.90;99.90
10314;DHT22;5202;49.138;10.090;2023-10-31T02:14:23;9.90;99.90
10314;DHT22;5202;49.138;10.090;2023-10-31T02:16:52;9.90;99.90
10314;DHT22;5202;49.138;10.090;2023-10-31T02:19:21;9.80;99.90
10314;DHT22;5202;49.138;10.090;2023-10-31T02:21:51;9.80;99.90
10314;DHT22;5202;49.138;10.090;2023-10-31T02:24:19;9.80;99.90
10314;DHT22;5202;49.138;10.090;2023-10-31T02:26:47;9.80;99.90
10314;DHT22;5202;49.138;10.090;2023-10-31T02:29:16;9.80;99.90
10314;DHT22;5202;49.138;10.090;2023-10-31T02:31:44;9.80;99.90
10314;DHT22;5202;49.138;10.090;2023-10-31T02:34:14;9.80;99.90
10314;DHT22;5202;49.138;10.090;2023-10-31T02:36:42;9.80;99.90
10314;DHT22;5202;49.138;10.090;2023-10-31T02:39:12;9.70;99.90
10314;DHT22;5202;49.138;10.090;2023-10-31T02:41:40;9.70;99.90
10314;DHT22;5202;49.138;10.090;2023-10-31T02:44:09;9.70;99.90
10314;DHT22;5202;49.138;10.090;2023-10-31T02:46:37;9.70;99.90
10314;DHT22;5202;49.138;10.090;2023-10-31T02:49:06;9.60;99.90
10314;DHT22;5202;49.138;10.090;2023-10-31T02:51:36;9.50;99.90
10314;DHT22;5202;49.138;10.090;2023-10-31T02:54:05;9.50;99.90
10314;DHT22;5202;49.138;10.090;2023-10-31T02:56:35;9.50;99.90
10314;DHT22;5202;49.138;10.090;2023-10-31T02:59:04;9.40;99.90
10314;DHT22;5202;49.138;10.090;2023-10-31T03:01:32;9.40;99.90
10314;DHT22;5202;49.138;10.090;2023-10-31T03:04:05;9.40;99.90
10314;DHT22;5202;49.138;10.090;2023-10-31T03:06:44;9.30;99.90
10314;DHT22;5202;49.138;10.090;2023-10-31T03:09:12;9.30;99.90
10314;DHT22;5202;49.138;10.090;2023-10-31T03:11:42;9.30;99.90
10314;DHT22;5202;49.138;10.090;2023-10-31T03:14:10;9.30;99.90
10314;DHT22;5202;49.138;10.090;2023-10-31T03:16:39;9.30;99.90
10314;DHT22;5202;49.138;10.090;2023-10-31T03:19:08;9.30;99.90
10314;DHT22;5202;49.138;10.090;2023-10-31T03:21:36;9.30;99.90
10314;DHT22;5202;49.138;10.090;2023-10-31T03:24:05;9.30;99.90
10314;DHT22;5202;49.138;10.090;2023-10-31T03:26:34;9.30;99.90
10314;DHT22;5202;49.138;10.090;2023-10-31T03:29:04;9.30;99.90
10314;DHT22;5202;49.138;10.090;2023-10-31T03:31:32;9.30;99.90
10314;DHT22;5202;49.138;10.090;2023-10-31T03:34:00;9.30;99.90
10314;DHT22;5202;49.138;10.090;2023-10-31T03:36:29;9.20;99.90
10314;DHT22;5202;49.138;10.090;2023-10-31T03:38:57;9.20;99.90
10314;DHT22;5202;49.138;10.090;2023-10-31T03:41:26;9.20;99.90
10314;DHT22;5202;49.138;10.090;2023-10-31T03:43:54;9.20;99.90
10314;DHT22;5202;49.138;10.090;2023-10-31T03:46:24;9.10;99.90
10314;DHT22;5202;49.138;10.090;2023-10-31T03:48:53;9.10;99.90
10314;DHT22;5202;49.138;10.090;2023-10-31T03:51:21;9.20;99.90
10314;DHT22;5202;49.138;10.090;2023-10-31T03:53:49;9.10;99.90
10314;DHT22;5202;49.138;10.090;2023-10-31T03:56:18;9.20;99.90
10314;DHT22;5202;49.138;10.090;2023-10-31T03:58:46;9.10;99.90
10314;DHT22;5202;49.138;10.090;2023-10-31T04:01:15;9.10;99.90
10314;DHT22;5202;49.138;10.090;2023-10-31T04:03:45;9.10;99.90
10314;DHT22;5202;49.138;10.090;2023-10-31T04:06:14;9.10;99.90
10314;DHT22;5202;49.138;10.090;2023-10-31T04:08:43;9.10;99.90
10314;DHT22;5202;49.138;10.090;2023-10-31T04:11:12;9.10;99.90
10314;DHT22;5202;49.138;10.090;2023-10-31T04:13:40;9.10;99.90
10314;DHT22;5202;49.138;10.090;2023-10-31T04:16:08;9.10;99.90
10314;DHT22;5202;49.138;10.090;2023-10-31T04:18:37;9.10;99.90
10314;DHT22;5202;49.138;10.090;2023-10-31T04:21:07;9.10;99.90
10314;DHT22;5202;49.138;10.090;2023-10-31T04:23:35;9.00;99.90
10314;DHT22;5202;49.138;10.090;2023-10-31T04:26:06;9.00;99.90
10314;DHT22;5202;49.138;10.090;2023-10-31T04:28:34;9.00;99.90
10314;DHT22;5202;49.138;10.090;2023-10-31T04:31:05;9.00;99.90
10314;DHT22;5202;49.138;10.090;2023-10-31T04:33:33;9.00;99.90
10314;DHT22;5202;49.138;10.090;2023-10-31T04:36:02;8.90;99.90
10314;DHT22;5202;49.138;10.090;2023-10-31T04:38:36;8.90;99.90
10314;DHT22;5202;49.138;10.090;2023-10-31T04:41:05;8.90;99.90
10314;DHT22;5202;49.138;10.090;2023-10-31T04:43:33;8.90;99.90
10314;DHT22;5202;49.138;10.090;2023-10-31T04:46:02;8.90;99.90
10314;DHT22;5202;49.138;10.090;2023-10-31T04:48:31;8.80;99.90
10314;DHT22;5202;49.138;10.090;2023-10-31T04:50:59;8.80;99.90
10314;DHT22;5202;49.138;10.090;2023-10-31T04:53:28;8.80;99.90
10314;DHT22;5202;49.138;10.090;2023-10-31T04:55:58;8.80;99.90
10314;DHT22;5202;49.138;10.090;2023-10-31T04:58:26;8.80;99.90
10314;DHT22;5202;49.138;10.090;2023-10-31T05:00:54;8.70;99.90
10314;DHT22;5202;49.138;10.090;2023-10-31T05:03:23;8.70;99.90
10314;DHT22;5202;49.138;10.090;2023-10-31T05:06:02;8.80;99.90
10314;DHT22;5202;49.138;10.090;2023-10-31T05:08:31;8.80;99.90
10314;DHT22;5202;49.138;10.090;2023-10-31T05:11:01;8.70;99.90
10314;DHT22;5202;49.138;10.090;2023-10-31T05:13:30;8.70;99.90
10314;DHT22;5202;49.138;10.090;2023-10-31T05:15:58;8.70;99.90
10314;DHT22;5202;49.138;10.090;2023-10-31T05:18:27;8.70;99.90
10314;DHT22;5202;49.138;10.090;2023-10-31T05:20:59;8.80;99.90
10314;DHT22;5202;49.138;10.090;2023-10-31T05:23:28;8.70;99.90
10314;DHT22;5202;49.138;10.090;2023-10-31T05:25:56;8.70;99.90
10314;DHT22;5202;49.138;10.090;2023-10-31T05:28:26;8.70;99.90
10314;DHT22;5202;49.138;10.090;2023-10-31T05:30:54;8.70;99.90
10314;DHT22;5202;49.138;10.090;2023-10-31T05:33:23;8.70;99.90
10314;DHT22;5202;49.138;10.090;2023-10-31T05:35:52;8.70;99.90
10314;DHT22;5202;49.138;10.090;2023-10-31T05:38:21;8.70;99.90
10314;DHT22;5202;49.138;10.090;2023-10-31T05:40:49;8.80;99.90
10314;DHT22;5202;49.138;10.090;2023-10-31T05:43:17;8.80;99.90
10314;DHT22;5202;49.138;10.090;2023-10-31T05:45:47;8.70;99.90
10314;DHT22;5202;49.138;10.090;2023-10-31T05:48:15;8.70;99.90
10314;DHT22;5202;49.138;10.090;2023-10-31T05:50:43;8.70;99.90
10314;DHT22;5202;49.138;10.090;2023-10-31T05:53:12;8.70;99.90
10314;DHT22;5202;49.138;10.090;2023-10-31T05:55:40;8.70;99.90
10314;DHT22;5202;49.138;10.090;2023-10-31T05:58:09;8.70;99.90
10314;DHT22;5202;49.138;10.090;2023-10-31T06:00:39;8.70;99.90
10314;DHT22;5202;49.138;10.090;2023-10-31T06:03:09;8.70;99.90
10314;DHT22;5202;49.138;10.090;2023-10-31T06:05:38;8.70;99.90
10314;DHT22;5202;49.138;10.090;2023-10-31T06:08:07;8.70;99.90
10314;DHT22;5202;49.138;10.090;2023-10-31T06:10:35;8.70;99.90
10314;DHT22;5202;49.138;10.090;2023-10-31T06:13:04;8.70;99.90
10314;DHT22;5202;49.138;10.090;2023-10-31T06:15:33;8.70;99.90
10314;DHT22;5202;49.138;10.090;2023-10-31T06:18:01;8.70;99.90
10314;DHT22;5202;49.138;10.090;2023-10-31T06:20:31;8.70;99.90
10314;DHT22;5202;49.138;10.090;2023-10-31T06:23:01;8.70;99.90
10314;DHT22;5202;49.138;10.090;2023-10-31T06:25:30;8.70;99.90
10314;DHT22;5202;49.138;10.090;2023-10-31T06:28:00;8.70;99.90
10314;DHT22;5202;49.138;10.090;2023-10-31T06:30:28;8.70;99.90
10314;DHT22;5202;49.138;10.090;2023-10-31T06:32:59;8.70;99.90
10314;DHT22;5202;49.138;10.090;2023-10-31T06:35:28;8.70;99.90
10314;DHT22;5202;49.138;10.090;2023-10-31T06:37:58;8.70;99.90
10314;DHT22;5202;49.138;10.090;2023-10-31T06:40:27;8.70;99.90
10314;DHT22;5202;49.138;10.090;2023-10-31T06:42:56;8.70;99.90
10314;DHT22;5202;49.138;10.090;2023-10-31T06:45:24;8.70;99.90
10314;DHT22;5202;49.138;10.090;2023-10-31T06:47:53;8.70;99.90
10314;DHT22;5202;49.138;10.090;2023-10-31T06:50:22;8.70;99.90
10314;DHT22;5202;49.138;10.090;2023-10-31T06:52:51;8.70;99.90
10314;DHT22;5202;49.138;10.090;2023-10-31T06:55:21;8.70;99.90
10314;DHT22;5202;49.138;10.090;2023-10-31T06:57:50;8.70;99.90
10314;DHT22;5202;49.138;10.090;2023-10-31T07:00:19;8.70;99.90
10314;DHT22;5202;49.138;10.090;2023-10-31T07:02:49;8.80;99.90
10314;DHT22;5202;49.138;10.090;2023-10-31T07:05:17;8.80;99.90
10314;DHT22;5202;49.138;10.090;2023-10-31T07:07:47;8.80;99.90
10314;DHT22;5202;49.138;10.090;2023-10-31T07:10:16;8.80;99.90
10314;DHT22;5202;49.138;10.090;2023-10-31T07:12:49;8.80;99.90
10314;DHT22;5202;49.138;10.090;2023-10-31T07:15:17;8.80;99.90
10314;DHT22;5202;49.138;10.090;2023-10-31T07:17:46;8.80;99.90
10314;DHT22;5202;49.138;10.090;2023-10-31T07:20:14;8.80;99.90
10314;DHT22;5202;49.138;10.090;2023-10-31T07:22:44;8.80;99.90
10314;DHT22;5202;49.138;10.090;2023-10-31T07:25:12;8.80;99.90
10314;DHT22;5202;49.138;10.090;2023-10-31T07:27:41;8.80;99.90
10314;DHT22;5202;49.138;10.090;2023-10-31T07:30:11;8.80;99.90
10314;DHT22;5202;49.138;10.090;2023-10-31T07:32:40;8.80;99.90
10314;DHT22;5202;49.138;10.090;2023-10-31T07:35:09;8.80;99.90
10314;DHT22;5202;49.138;10.090;2023-10-31T07:37:38;8.80;99.90
10314;DHT22;5202;49.138;10.090;2023-10-31T07:40:07;8.90;99.90
10314;DHT22;5202;49.138;10.090;2023-10-31T07:42:37;8.90;99.90
10314;DHT22;5202;49.138;10.090;2023-10-31T07:45:07;8.90;99.90
10314;DHT22;5202;49.138;10.090;2023-10-31T07:47:37;8.90;99.90
10314;DHT22;5202;49.138;10.090;2023-10-31T07:50:07;8.90;99.90
10314;DHT22;5202;49.138;10.090;2023-10-31T07:52:36;9.00;99.90
10314;DHT22;5202;49.138;10.090;2023-10-31T07:55:06;9.00;99.90
10314;DHT22;5202;49.138;10.090;2023-10-31T07:57:34;9.00;99.90
10314;DHT22;5202;49.138;10.090;2023-10-31T08:00:08;9.00;99.90
10314;DHT22;5202;49.138;10.090;2023-10-31T08:02:39;9.00;99.90
10314;DHT22;5202;49.138;10.090;2023-10-31T08:05:10;9.00;99.90
10314;DHT22;5202;49.138;10.090;2023-10-31T08:07:39;9.00;99.90
10314;DHT22;5202;49.138;10.090;2023-10-31T08:10:08;9.00;99.90
10314;DHT22;5202;49.138;10.090;2023-10-31T08:12:37;9.00;99.90
10314;DHT22;5202;49.138;10.090;2023-10-31T08:15:07;9.00;99.90
10314;DHT22;5202;49.138;10.090;2023-10-31T08:17:36;9.00;99.90
10314;DHT22;5202;49.138;10.090;2023-10-31T08:20:09;9.00;99.90
10314;DHT22;5202;49.138;10.090;2023-10-31T08:22:39;9.00;99.90
10314;DHT22;5202;49.138;10.090;2023-10-31T08:25:10;9.10;99.90
10314;DHT22;5202;49.138;10.090;2023-10-31T08:27:40;9.00;99.90
10314;DHT22;5202;49.138;10.090;2023-10-31T08:30:09;9.00;99.90
10314;DHT22;5202;49.138;10.090;2023-10-31T08:32:38;9.00;99.90
10314;DHT22;5202;49.138;10.090;2023-10-31T08:35:08;9.00;99.90
10314;DHT22;5202;49.138;10.090;2023-10-31T08:37:37;9.00;99.90
10314;DHT22;5202;49.138;10.090;2023-10-31T08:40:08;9.10;99.90
10314;DHT22;5202;49.138;10.090;2023-10-31T08:42:37;9.00;99.90
10314;DHT22;5202;49.138;10.090;2023-10-31T08:45:08;9.00;99.90
10314;DHT22;5202;49.138;10.090;2023-10-31T08:47:36;9.10;99.90
10314;DHT22;5202;49.138;10.090;2023-10-31T08:50:07;9.10;99.90
10314;DHT22;5202;49.138;10.090;2023-10-31T08:52:37;9.10;99.90
10314;DHT22;5202;49.138;10.090;2023-10-31T08:55:06;9.10;99.90
10314;DHT22;5202;49.138;10.090;2023-10-31T08:57:35;9.20;99.90
10314;DHT22;5202;49.138;10.090;2023-10-31T09:00:04;9.30;99.90
10314;DHT22;5202;49.138;10.090;2023-10-31T09:02:34;9.30;99.90
10314;DHT22;5202;49.138;10.090;2023-10-31T09:05:09;9.30;99.90
10314;DHT22;5202;49.138;10.090;2023-10-31T09:07:48;9.30;99.90
10314;DHT22;5202;49.138;10.090;2023-10-31T09:10:17;9.30;99.90
10314;DHT22;5202;49.138;10.090;2023-10-31T09:12:45;9.30;99.90
10314;DHT22;5202;49.138;10.090;2023-10-31T09:15:13;9.40;99.90
10314;DHT22;5202;49.138;10.090;2023-10-31T09:17:43;9.30;99.90
10314;DHT22;5202;49.138;10.090;2023-10-31T09:20:14;9.30;99.90
10314;DHT22;5202;49.138;10.090;2023-10-31T09:22:42;9.40;99.90
10314;DHT22;5202;49.138;10.090;2023-10-31T09:25:11;9.50;99.90
10314;DHT22;5202;49.138;10.090;2023-10-31T09:27:41;9.50;99.90
10314;DHT22;5202;49.138;10.090;2023-10-31T09:30:10;9.60;99.90
10314;DHT22;5202;49.138;10.090;2023-10-31T09:32:39;9.50;99.90
10314;DHT22;5202;49.138;10.090;2023-10-31T09:35:09;9.50;99.90
10314;DHT22;5202;49.138;10.090;2023-10-31T09:37:41;9.40;99.90
10314;DHT22;5202;49.138;10.090;2023-10-31T09:40:11;9.30;99.90
10314;DHT22;5202;49.138;10.090;2023-10-31T09:42:39;9.30;99.90
10314;DHT22;5202;49.138;10.090;2023-10-31T09:45:08;9.30;99.90
10314;DHT22;5202;49.138;10.090;2023-10-31T09:47:37;9.30;99.90
10314;DHT22;5202;49.138;10.090;2023-10-31T09:50:07;9.30;99.90
10314;DHT22;5202;49.138;10.090;2023-10-31T09:52:36;9.30;99.90
10314;DHT22;5202;49.138;10.090;2023-10-31T09:55:08;9.40;99.90
10314;DHT22;5202;49.138;10.090;2023-10-31T09:57:37;9.40;99.90
10314;DHT22;5202;49.138;10.090;2023-10-31T10:00:08;9.40;99.90
10314;DHT22;5202;49.138;10.090;2023-10-31T10:02:38;9.50;99.90
10314;DHT22;5202;49.138;10.090;2023-10-31T10:05:09;9.50;99.90
10314;DHT22;5202;49.138;10.090;2023-10-31T10:07:41;9.60;99.90
10314;DHT22;5202;49.138;10.090;2023-10-31T10:10:13;9.70;99.90
10314;DHT22;5202;49.138;10.090;2023-10-31T10:12:42;9.70;99.90
10314;DHT22;5202;49.138;10.090;2023-10-31T10:15:11;9.80;99.90
10314;DHT22;5202;49.138;10.090;2023-10-31T10:17:48;9.90;99.90
10314;DHT22;5202;49.138;10.090;2023-10-31T10:20:20;9.90;99.90
10314;DHT22;5202;49.138;10.090;2023-10-31T10:22:49;10.00;99.90
10314;DHT22;5202;49.138;10.090;2023-10-31T10:25:19;10.10;99.90
10314;DHT22;5202;49.138;10.090;2023-10-31T10:27:47;10.20;99.90
10314;DHT22;5202;49.138;10.090;2023-10-31T10:30:17;10.20;99.90
10314;DHT22;5202;49.138;10.090;2023-10-31T10:32:49;10.30;99.90
10314;DHT22;5202;49.138;10.090;2023-10-31T10:35:19;10.30;99.90
10314;DHT22;5202;49.138;10.090;2023-10-31T10:37:49;10.40;99.90
10314;DHT22;5202;49.138;10.090;2023-10-31T10:40:21;10.40;99.90
10314;DHT22;5202;49.138;10.090;2023-10-31T10:42:50;10.40;99.90
10314;DHT22;5202;49.138;10.090;2023-10-31T10:45:25;10.50;99.90
10314;DHT22;5202;49.138;10.090;2023-10-31T10:48:05;10.50;99.90
10314;DHT22;5202;49.138;10.090;2023-10-31T10:50:43;10.60;99.90
10314;DHT22;5202;49.138;10.090;2023-10-31T10:53:22;10.70;99.90
10314;DHT22;5202;49.138;10.090;2023-10-31T10:55:56;10.70;99.90
10314;DHT22;5202;49.138;10.090;2023-10-31T10:58:34;10.60;99.90
10314;DHT22;5202;49.138;10.090;2023-10-31T11:01:06;10.60;99.90
10314;DHT22;5202;49.138;10.090;2023-10-31T11:03:36;10.60;99.90
10314;DHT22;5202;49.138;10.090;2023-10-31T11:06:13;10.60;99.90
10314;DHT22;5202;49.138;10.090;2023-10-31T11:08:43;10.60;99.90
10314;DHT22;5202;49.138;10.090;2023-10-31T11:11:13;10.70;99.90
10314;DHT22;5202;49.138;10.090;2023-10-31T11:13:43;10.70;99.90
10314;DHT22;5202;49.138;10.090;2023-10-31T11:16:17;10.60;99.90
10314;DHT22;5202;49.138;10.090;2023-10-31T11:18:49;10.70;99.90
10314;DHT22;5202;49.138;10.090;2023-10-31T11:21:18;10.70;99.90
10314;DHT22;5202;49.138;10.090;2023-10-31T11:23:57;10.80;99.90
10314;DHT22;5202;49.138;10.090;2023-10-31T11:26:29;10.80;99.90
10314;DHT22;5202;49.138;10.090;2023-10-31T11:29:06;10.80;99.90
10314;DHT22;5202;49.138;10.090;2023-10-31T11:31:37;10.80;99.90
10314;DHT22;5202;49.138;10.090;2023-10-31T11:34:07;10.80;99.90
10314;DHT22;5202;49.138;10.090;2023-10-31T11:36:37;10.90;99.90
10314;DHT22;5202;49.138;10.090;2023-10-31T11:39:12;10.90;99.90
10314;DHT22;5202;49.138;10.090;2023-10-31T11:41:48;10.80;99.90
10314;DHT22;5202;49.138;10.090;2023-10-31T11:44:22;10.80;99.90
10314;DHT22;5202;49.138;10.090;2023-10-31T11:46:50;10.80;99.90
10314;DHT22;5202;49.138;10.090;2023-10-31T11:49:45;10.80;99.90
10314;DHT22;5202;49.138;10.090;2023-10-31T11:52:14;10.80;99.90
10314;DHT22;5202;49.138;10.090;2023-10-31T11:54:44;10.80;99.90
10314;DHT22;5202;49.138;10.090;2023-10-31T11:57:27;10.90;99.90
10314;DHT22;5202;49.138;10.090;2023-10-31T11:59:57;10.90;99.90
10314;DHT22;5202;49.138;10.090;2023-10-31T12:02:27;11.00;99.90
10314;DHT22;5202;49.138;10.090;2023-10-31T12:05:07;11.10;99.90
10314;DHT22;5202;49.138;10.090;2023-10-31T12:07:43;11.10;99.90
10314;DHT22;5202;49.138;10.090;2023-10-31T12:10:13;11.20;99.90
10314;DHT22;5202;49.138;10.090;2023-10-31T12:12:51;11.20;99.90
10314;DHT22;5202;49.138;10.090;2023-10-31T12:15:20;11.30;99.90
10314;DHT22;5202;49.138;10.090;2023-10-31T12:17:49;11.30;99.90
10314;DHT22;5202;49.138;10.090;2023-10-31T12:20:18;11.40;99.90
10314;DHT22;5202;49.138;10.090;2023-10-31T12:22:47;11.40;99.90
10314;DHT22;5202;49.138;10.090;2023-10-31T12:25:15;11.50;99.90
10314;DHT22;5202;49.138;10.090;2023-10-31T12:27:44;11.60;99.90
10314;DHT22;5202;49.138;10.090;2023-10-31T12:30:17;11.60;99.90
10314;DHT22;5202;49.138;10.090;2023-10-31T12:32:54;11.60;99.90
10314;DHT22;5202;49.138;10.090;2023-10-31T12:35:26;11.60;99.90
10314;DHT22;5202;49.138;10.090;2023-10-31T12:37:54;11.60;99.90
10314;DHT22;5202;49.138;10.090;2023-10-31T12:40:25;11.50;99.90
10314;DHT22;5202;49.138;10.090;2023-10-31T12:42:54;11.40;99.90
10314;DHT22;5202;49.138;10.090;2023-10-31T12:45:25;11.30;99.90
10314;DHT22;5202;49.138;10.090;2023-10-31T12:48:01;11.10;99.90
10314;DHT22;5202;49.138;10.090;2023-10-31T12:50:33;11.10;99.90
10314;DHT22;5202;49.138;10.090;2023-10-31T12:53:04;11.00;99.90
10314;DHT22;5202;49.138;10.090;2023-10-31T12:55:38;11.00;99.90
10314;DHT22;5202;49.138;10.090;2023-10-31T12:58:08;11.00;99.90
10314;DHT22;5202;49.138;10.090;2023-10-31T13:00:43;11.00;99.90
10314;DHT22;5202;49.138;10.090;2023-10-31T13:03:13;11.00;99.90
10314;DHT22;5202;49.138;10.090;2023-10-31T13:05:47;11.00;99.90
10314;DHT22;5202;49.138;10.090;2023-10-31T13:08:17;11.30;99.90
10314;DHT22;5202;49.138;10.090;2023-10-31T13:10:46;11.50;99.90
10314;DHT22;5202;49.138;10.090;2023-10-31T13:13:14;11.60;99.90
10314;DHT22;5202;49.138;10.090;2023-10-31T13:15:44;11.40;99.90
10314;DHT22;5202;49.138;10.090;2023-10-31T13:18:13;11.30;99.90
10314;DHT22;5202;49.138;10.090;2023-10-31T13:20:42;11.20;99.90
10314;DHT22;5202;49.138;10.090;2023-10-31T13:23:11;11.20;99.90
10314;DHT22;5202;49.138;10.090;2023-10-31T13:25:39;11.10;99.90
10314;DHT22;5202;49.138;10.090;2023-10-31T13:28:08;11.00;99.90
10314;DHT22;5202;49.138;10.090;2023-10-31T13:30:39;10.90;99.90
10314;DHT22;5202;49.138;10.090;2023-10-31T13:33:09;10.80;99.90
10314;DHT22;5202;49.138;10.090;2023-10-31T13:35:38;10.60;99.90
10314;DHT22;5202;49.138;10.090;2023-10-31T13:38:06;10.50;99.90
10314;DHT22;5202;49.138;10.090;2023-10-31T13:40:35;10.40;99.90
10314;DHT22;5202;49.138;10.090;2023-10-31T13:43:03;10.40;99.90
10314;DHT22;5202;49.138;10.090;2023-10-31T13:45:33;10.30;99.90
10314;DHT22;5202;49.138;10.090;2023-10-31T13:48:01;10.20;99.90
10314;DHT22;5202;49.138;10.090;2023-10-31T13:50:31;10.20;99.90
10314;DHT22;5202;49.138;10.090;2023-10-31T13:53:00;10.20;99.90
10314;DHT22;5202;49.138;10.090;2023-10-31T13:55:30;10.20;99.90
10314;DHT22;5202;49.138;10.090;2023-10-31T13:57:58;10.30;99.90
10314;DHT22;5202;49.138;10.090;2023-10-31T14:00:27;10.40;99.90
10314;DHT22;5202;49.138;10.090;2023-10-31T14:02:56;10.50;99.90
10314;DHT22;5202;49.138;10.090;2023-10-31T14:05:25;10.60;99.90
10314;DHT22;5202;49.138;10.090;2023-10-31T14:07:55;10.70;99.90
10314;DHT22;5202;49.138;10.090;2023-10-31T14:10:25;10.70;99.90
10314;DHT22;5202;49.138;10.090;2023-10-31T14:12:53;10.60;99.90
10314;DHT22;5202;49.138;10.090;2023-10-31T14:15:23;10.60;99.90
10314;DHT22;5202;49.138;10.090;2023-10-31T14:17:51;10.60;99.90
10314;DHT22;5202;49.138;10.090;2023-10-31T14:20:19;10.60;99.90
10314;DHT22;5202;49.138;10.090;2023-10-31T14:22:48;10.50;99.90
10314;DHT22;5202;49.138;10.090;2023-10-31T14:25:18;10.50;99.90
10314;DHT22;5202;49.138;10.090;2023-10-31T14:27:47;10.50;99.90
10314;DHT22;5202;49.138;10.090;2023-10-31T14:30:15;10.60;99.90
10314;DHT22;5202;49.138;10.090;2023-10-31T14:32:43;10.60;99.90
10314;DHT22;5202;49.138;10.090;2023-10-31T14:35:12;10.80;99.90
10314;DHT22;5202;49.138;10.090;2023-10-31T14:37:41;10.90;99.90
10314;DHT22;5202;49.138;10.090;2023-10-31T14:40:11;11.20;99.90
10314;DHT22;5202;49.138;10.090;2023-10-31T14:42:41;11.50;99.90
10314;DHT22;5202;49.138;10.090;2023-10-31T14:45:10;11.80;99.90
10314;DHT22;5202;49.138;10.090;2023-10-31T14:47:39;11.80;99.90
10314;DHT22;5202;49.138;10.090;2023-10-31T14:50:08;12.00;99.90
10314;DHT22;5202;49.138;10.090;2023-10-31T14:52:37;12.20;99.90
10314;DHT22;5202;49.138;10.090;2023-10-31T14:55:06;12.50;99.90
10314;DHT22;5202;49.138;10.090;2023-10-31T14:57:36;12.70;99.90
10314;DHT22;5202;49.138;10.090;2023-10-31T15:00:07;12.60;99.90
10314;DHT22;5202;49.138;10.090;2023-10-31T15:02:38;12.40;99.90
10314;DHT22;5202;49.138;10.090;2023-10-31T15:05:07;12.30;99.90
10314;DHT22;5202;49.138;10.090;2023-10-31T15:07:37;12.40;99.90
10314;DHT22;5202;49.138;10.090;2023-10-31T15:10:08;12.30;99.90
10314;DHT22;5202;49.138;10.090;2023-10-31T15:12:37;12.20;99.90
10314;DHT22;5202;49.138;10.090;2023-10-31T15:15:07;12.00;99.90
10314;DHT22;5202;49.138;10.090;2023-10-31T15:17:36;11.80;99.90
10314;DHT22;5202;49.138;10.090;2023-10-31T15:20:07;11.70;99.90
10314;DHT22;5202;49.138;10.090;2023-10-31T15:22:37;11.70;99.90
10314;DHT22;5202;49.138;10.090;2023-10-31T15:25:05;11.70;99.90
10314;DHT22;5202;49.138;10.090;2023-10-31T15:27:35;11.50;99.90
10314;DHT22;5202;49.138;10.090;2023-10-31T15:30:08;11.40;99.90
10314;DHT22;5202;49.138;10.090;2023-10-31T15:32:38;11.30;99.90
10314;DHT22;5202;49.138;10.090;2023-10-31T15:35:07;11.20;99.90
10314;DHT22;5202;49.138;10.090;2023-10-31T15:37:37;11.10;99.90
10314;DHT22;5202;49.138;10.090;2023-10-31T15:40:07;11.00;99.90
10314;DHT22;5202;49.138;10.090;2023-10-31T15:42:37;11.00;99.90
10314;DHT22;5202;49.138;10.090;2023-10-31T15:45:08;10.90;99.90
10314;DHT22;5202;49.138;10.090;2023-10-31T15:47:36;10.80;99.90
10314;DHT22;5202;49.138;10.090;2023-10-31T15:50:06;10.70;99.90
10314;DHT22;5202;49.138;10.090;2023-10-31T15:52:36;10.70;99.90